Nimpkish II — VG4333 — position and weather

sailwx.info

Track history (hours):
 
Tides and Currents Weather Stations Pressure Air Temp Water Temp Dewpoint Dewpoint Depression Visibility Wind Speed Wind Dir Waves Ship Positions

Nimpkish II

Last reported at 2018-Jun-15 01:24 UTC. Time now 2018-Jul-20 16:21 UTC.
Position N 49°10' W 122°58'.
Warning: this ship's position is 35 days out of date.

Length 18 m.

Type: Pleasure craft. MMSI: 316006246.

Date/timePositionNaut miles runAvg speedWind from/ knotsBaromVisibWave heightAir tempDewpointWater temp
2018-Jun-15 01:24N 49°10' W 122°58'0 0.0
2018-Jun-15 01:00N 49°10' W 122°58'2 3.3
2018-Jun-15 00:30N 49°09' W 123°00'3 6.6
2018-Jun-15 00:01N 49°07' W 123°04'12 3.3
2018-Jun-14 20:22N 49°18' W 123°12'3 6.1
2018-Jun-14 19:48N 49°18' W 123°07'  
2018-Jun-08 00:49N 49°18' W 123°08'0 0.0
2018-Jun-08 00:13N 49°18' W 123°08'0 0.0
2018-Jun-07 23:43N 49°18' W 123°08'0 0.0
2018-Jun-07 23:07N 49°18' W 123°08'0 0.0
2018-Jun-07 22:55N 49°18' W 123°08'0 0.0
2018-Jun-07 22:19N 49°18' W 123°08'0 0.0
2018-Jun-07 21:49N 49°18' W 123°08'0 0.0
2018-Jun-07 21:19N 49°18' W 123°08'0 0.0
2018-Jun-07 20:07N 49°18' W 123°08'0 0.0
2018-Jun-07 19:49N 49°18' W 123°08'0 0.1
2018-Jun-07 19:30N 49°18' W 123°08'2 4.0
2018-Jun-07 18:54N 49°18' W 123°04'1 1.4
2018-Jun-07 18:30N 49°18' W 123°05'1 1.3
2018-Jun-07 18:00N 49°18' W 123°06'1 1.6
2018-Jun-07 17:16N 49°18' W 123°08'0 0.0
2018-Jun-07 16:46N 49°18' W 123°08'  
Track history (hours):
 
Tides and Currents Weather Stations Pressure Air Temp Water Temp Dewpoint Dewpoint Depression Visibility Wind Speed Wind Dir Waves Ship Positions

Nimpkish II

Last reported at 2018-Jun-15 01:24 UTC. Time now 2018-Jul-20 16:21 UTC.
Position N 49°10' W 122°58'.
Warning: this ship's position is 35 days out of date.

Length 18 m.

Type: Pleasure craft. MMSI: 316006246.

Date/timePositionNaut miles runAvg speedWind from/ knotsBaromVisibWave heightAir tempDewpointWater temp
2018-Jun-15 01:24N 49°10' W 122°58'0 0.0
2018-Jun-15 01:00N 49°10' W 122°58'2 3.3
2018-Jun-15 00:30N 49°09' W 123°00'3 6.6
2018-Jun-15 00:01N 49°07' W 123°04'12 3.3
2018-Jun-14 20:22N 49°18' W 123°12'3 6.1
2018-Jun-14 19:48N 49°18' W 123°07'  
2018-Jun-08 00:49N 49°18' W 123°08'0 0.0
2018-Jun-08 00:13N 49°18' W 123°08'0 0.0
2018-Jun-07 23:43N 49°18' W 123°08'0 0.0
2018-Jun-07 23:07N 49°18' W 123°08'0 0.0
2018-Jun-07 22:55N 49°18' W 123°08'0 0.0
2018-Jun-07 22:19N 49°18' W 123°08'0 0.0
2018-Jun-07 21:49N 49°18' W 123°08'0 0.0
2018-Jun-07 21:19N 49°18' W 123°08'0 0.0
2018-Jun-07 20:07N 49°18' W 123°08'0 0.0
2018-Jun-07 19:49N 49°18' W 123°08'0 0.1
2018-Jun-07 19:30N 49°18' W 123°08'2 4.0
2018-Jun-07 18:54N 49°18' W 123°04'1 1.4
2018-Jun-07 18:30N 49°18' W 123°05'1 1.3
2018-Jun-07 18:00N 49°18' W 123°06'1 1.6
2018-Jun-07 17:16N 49°18' W 123°08'0 0.0
2018-Jun-07 16:46N 49°18' W 123°08'  

Dump ship's entire track history